Thunder radar more information blitzortung!


Radar de pluja more information rain snow radar


Visita la nostra xarxa de llocs de meteo:

Template documentation
and downloads

And another site



No particular awareness of the weather is required.    There are no Weather-warnings

Pagina Historial Weather Underground text

Diari Resum Agost 4, 2017 Unitats:  Mètric    Imperial   Tant
« Previous Dia
SegĂźent Dia »
Diari Setmana Mensual Anual Personalitzada
  Maxima: Minima: Media:
Temperatura: 38.9 °C 22.3 °C 31.3 °C
Punt de rosada: 19.2 °C 12.2 °C 17.1 °C
Humitat: 71 % 28 % 46 %
Wind Speed: 18.5 km/h 0.0 km/h 5.9 km/h
RĂ fegues de vent: 18.5 km/h - -
Vent:- - South
Pression baro: 1014.8 hPa 1010.0 hPa -
Precipitacions: 0.0 mm    
Historical Graphs
 
 
Dades de taula per Agost 4, 2017
Temps Temperatura Punt de rosada Pression baro Vent Wind Speed RĂ fegues de vent Humitat Rainfall Rate (Hourly)
00:02 29.2 °C 12.2 °C 1011.7 hPa Calm     35 % 0.0 mm
00:05 23.3 °C 16.3 °C 1013.8 hPa Calm     65 % 0.0 mm
00:07 29.0 °C 12.4 °C 1011.7 hPa Calm     36 % 0.0 mm
00:12 28.8 °C 12.7 °C 1011.7 hPa Calm     37 % 0.0 mm
00:15 23.3 °C 16.1 °C 1013.8 hPa Calm     64 % 0.0 mm
00:17 28.6 °C 12.5 °C 1012.8 hPa Calm     37 % 0.0 mm
00:25 23.2 °C 16.0 °C 1013.8 hPa Calm     64 % 0.0 mm
00:35 23.2 °C 16.0 °C 1012.8 hPa Calm     64 % 0.0 mm
00:45 23.1 °C 16.2 °C 1012.8 hPa Calm     65 % 0.0 mm
00:55 22.9 °C 15.9 °C 1013.8 hPa NW 1.6 km/h 1.6 km/h 65 % 0.0 mm
01:05 22.8 °C 16.1 °C 1013.8 hPa Calm   1.6 km/h 66 % 0.0 mm
01:15 22.7 °C 16.0 °C 1013.8 hPa Calm     66 % 0.0 mm
01:25 22.6 °C 15.7 °C 1013.8 hPa Calm   1.6 km/h 65 % 0.0 mm
01:35 22.4 °C 15.7 °C 1013.8 hPa Calm     66 % 0.0 mm
01:45 22.3 °C 15.7 °C 1013.8 hPa WNW 1.6 km/h 1.6 km/h 66 % 0.0 mm
01:55 22.3 °C 15.7 °C 1013.8 hPa NNW 1.6 km/h 3.2 km/h 66 % 0.0 mm
02:05 22.3 °C 15.7 °C 1013.8 hPa North 1.6 km/h 1.6 km/h 66 % 0.0 mm
02:15 22.3 °C 15.9 °C 1013.8 hPa Calm   3.2 km/h 67 % 0.0 mm
02:25 22.5 °C 15.8 °C 1013.8 hPa Calm   1.6 km/h 66 % 0.0 mm
02:35 22.8 °C 15.9 °C 1013.8 hPa Calm   1.6 km/h 65 % 0.0 mm
02:45 23.2 °C 16.0 °C 1013.8 hPa Calm   1.6 km/h 64 % 0.0 mm
02:55 23.1 °C 15.9 °C 1013.8 hPa East 1.6 km/h 1.6 km/h 64 % 0.0 mm
03:05 22.8 °C 15.6 °C 1013.8 hPa SW 3.2 km/h 3.2 km/h 64 % 0.0 mm
03:15 23.4 °C 16.2 °C 1013.8 hPa Calm   3.2 km/h 64 % 0.0 mm
03:25 24.0 °C 16.3 °C 1014.8 hPa SE 1.6 km/h 3.2 km/h 62 % 0.0 mm
03:35 24.4 °C 16.1 °C 1013.8 hPa East 1.6 km/h 3.2 km/h 60 % 0.0 mm
03:45 25.1 °C 16.5 °C 1013.8 hPa East 1.6 km/h 3.2 km/h 59 % 0.0 mm
03:55 25.4 °C 16.3 °C 1013.8 hPa ESE 1.6 km/h 1.6 km/h 57 % 0.0 mm
04:05 26.2 °C 16.7 °C 1013.8 hPa Calm   3.2 km/h 56 % 0.0 mm
04:15 26.8 °C 17.0 °C 1013.8 hPa SE 1.6 km/h 1.6 km/h 55 % 0.0 mm
04:25 27.1 °C 17.0 °C 1013.8 hPa SE 1.6 km/h 3.2 km/h 54 % 0.0 mm
04:35 27.9 °C 17.1 °C 1013.8 hPa SSE 1.6 km/h 3.2 km/h 52 % 0.0 mm
04:45 28.1 °C 17.3 °C 1013.8 hPa SSW 1.6 km/h 1.6 km/h 52 % 0.0 mm
04:55 28.3 °C 17.5 °C 1013.8 hPa SW 1.6 km/h 3.2 km/h 52 % 0.0 mm
05:05 29.5 °C 18.0 °C 1013.8 hPa South 1.6 km/h 3.2 km/h 50 % 0.0 mm
10:16 30.3 °C 18.1 °C 1013.8 hPa ESE 4.2 km/h 4.2 km/h 48 % 0.0 mm
10:21 30.7 °C 18.4 °C 1013.8 hPa ESE 1.9 km/h   48 % 0.0 mm
10:26 30.6 °C 18.0 °C 1013.8 hPa WNW 3.7 km/h 3.7 km/h 47 % 0.0 mm
10:31 31.4 °C 18.4 °C 1013.8 hPa SSE 5.0 km/h 5.0 km/h 46 % 0.0 mm
10:36 31.8 °C 18.8 °C 1014.8 hPa ESE 3.7 km/h 3.7 km/h 46 % 0.0 mm
10:41 32.1 °C 18.7 °C 1014.8 hPa ESE 3.7 km/h 3.7 km/h 45 % 0.0 mm
10:46 32.2 °C 18.8 °C 1014.8 hPa SSE 2.6 km/h 2.6 km/h 45 % 0.0 mm
10:51 32.8 °C 18.9 °C 1013.8 hPa SW 5.6 km/h 5.6 km/h 44 % 0.0 mm
10:56 33.1 °C 18.8 °C 1013.8 hPa SSW 6.1 km/h 6.1 km/h 43 % 0.0 mm
11:01 33.3 °C 19.0 °C 1013.8 hPa SW 3.7 km/h 3.7 km/h 43 % 0.0 mm
11:06 33.9 °C 19.2 °C 1013.8 hPa SSE 1.9 km/h 1.9 km/h 42 % 0.0 mm
11:11 33.9 °C 19.2 °C 1013.8 hPa ESE 5.6 km/h 5.6 km/h 42 % 0.0 mm
11:16 33.7 °C 19.0 °C 1013.8 hPa SSW 7.4 km/h 7.4 km/h 42 % 0.0 mm
11:21 33.6 °C 18.6 °C 1013.8 hPa SW 5.6 km/h 5.6 km/h 41 % 0.0 mm
11:26 34.1 °C 18.6 °C 1013.8 hPa SSW 7.4 km/h 7.4 km/h 40 % 0.0 mm
11:27 34.2 °C 19.1 °C 1013.8 hPa SW 5.8 km/h 5.8 km/h 41 % 0.0 mm
11:32 34.0 °C 18.5 °C 1013.8 hPa West 7.4 km/h 7.4 km/h 40 % 0.0 mm
11:37 34.6 °C 18.6 °C 1013.8 hPa ESE 1.9 km/h 1.9 km/h 39 % 0.0 mm
11:42 34.8 °C 18.4 °C 1013.8 hPa SW 9.3 km/h 9.3 km/h 38 % 0.0 mm
11:47 35.1 °C 17.8 °C 1013.8 hPa South 7.4 km/h 7.4 km/h 36 % 0.0 mm
11:52 35.0 °C 17.7 °C 1013.8 hPa SW 10.3 km/h 10.3 km/h 36 % 0.0 mm
11:57 34.9 °C 16.7 °C 1013.8 hPa South 9.3 km/h 9.3 km/h 34 % 0.0 mm
12:02 35.8 °C 17.9 °C 1013.8 hPa West 5.3 km/h 5.3 km/h 35 % 0.0 mm
12:07 35.5 °C 17.2 °C 1013.8 hPa WSW 7.4 km/h 7.4 km/h 34 % 0.0 mm
12:12 35.4 °C 16.7 °C 1013.8 hPa SSW 14.8 km/h 14.8 km/h 33 % 0.0 mm
12:17 35.7 °C 17.4 °C 1013.8 hPa ESE 5.6 km/h 5.6 km/h 34 % 0.0 mm
12:22 36.6 °C 18.2 °C 1013.8 hPa SSW 10.3 km/h 10.3 km/h 34 % 0.0 mm
12:27 36.0 °C 17.2 °C 1013.8 hPa SW 7.4 km/h 7.4 km/h 33 % 0.0 mm
12:32 36.2 °C 17.4 °C 1013.8 hPa SW 7.4 km/h 7.4 km/h 33 % 0.0 mm
12:37 36.7 °C 17.3 °C 1013.8 hPa WSW 5.6 km/h 5.6 km/h 32 % 0.0 mm
12:42 37.1 °C 17.7 °C 1013.8 hPa WSW 6.1 km/h 6.1 km/h 32 % 0.0 mm
12:47 36.7 °C 17.3 °C 1012.8 hPa South 5.6 km/h 5.6 km/h 32 % 0.0 mm
12:52 36.9 °C 17.5 °C 1012.8 hPa WNW 9.3 km/h 9.3 km/h 32 % 0.0 mm
12:57 37.6 °C 18.1 °C 1012.8 hPa SSW 4.2 km/h 4.2 km/h 32 % 0.0 mm
13:02 36.9 °C 17.0 °C 1011.7 hPa SW 9.3 km/h 9.3 km/h 31 % 0.0 mm
13:07 36.9 °C 17.0 °C 1011.7 hPa South 5.6 km/h 5.6 km/h 31 % 0.0 mm
13:12 37.5 °C 17.0 °C 1011.7 hPa SW 11.1 km/h 11.1 km/h 30 % 0.0 mm
13:17 37.3 °C 16.8 °C 1011.7 hPa SSW 13.0 km/h 13.0 km/h 30 % 0.0 mm
13:22 37.5 °C 17.0 °C 1011.7 hPa SW 11.1 km/h 11.1 km/h 30 % 0.0 mm
13:27 37.2 °C 16.7 °C 1011.7 hPa South 5.6 km/h 5.6 km/h 30 % 0.0 mm
13:32 37.9 °C 17.3 °C 1011.7 hPa SSW 11.1 km/h 11.1 km/h 30 % 0.0 mm
13:37 37.7 °C 17.2 °C 1011.7 hPa WSW 7.4 km/h 7.4 km/h 30 % 0.0 mm
13:42 38.1 °C 17.5 °C 1011.7 hPa WSW 5.6 km/h 5.6 km/h 30 % 0.0 mm
13:47 38.2 °C 17.6 °C 1010.7 hPa West 11.9 km/h 11.9 km/h 30 % 0.0 mm
13:52 37.6 °C 16.6 °C 1010.7 hPa WSW 9.3 km/h 9.3 km/h 29 % 0.0 mm
13:57 38.3 °C 17.1 °C 1010.7 hPa SE 9.3 km/h 9.3 km/h 29 % 0.0 mm
14:02 38.3 °C 17.1 °C 1011.7 hPa SW 11.1 km/h 11.1 km/h 29 % 0.0 mm
14:07 38.0 °C 16.9 °C 1011.7 hPa SW 13.0 km/h 13.0 km/h 29 % 0.0 mm
14:12 38.0 °C 16.9 °C 1011.7 hPa SW 9.3 km/h 9.3 km/h 29 % 0.0 mm
14:17 38.1 °C 16.9 °C 1011.7 hPa WSW 7.6 km/h 7.6 km/h 29 % 0.0 mm
14:22 37.8 °C 16.7 °C 1011.7 hPa South 9.3 km/h 9.3 km/h 29 % 0.0 mm
14:27 38.3 °C 17.1 °C 1011.7 hPa SW 7.4 km/h 7.4 km/h 29 % 0.0 mm
14:32 38.4 °C 17.2 °C 1011.7 hPa SSW 9.3 km/h 9.3 km/h 29 % 0.0 mm
14:37 38.0 °C 16.3 °C 1011.7 hPa South 5.6 km/h 5.6 km/h 28 % 0.0 mm
14:42 38.5 °C 17.3 °C 1011.7 hPa SW 9.3 km/h 9.3 km/h 29 % 0.0 mm
14:47 38.9 °C 17.7 °C 1011.7 hPa West 14.8 km/h 14.8 km/h 29 % 0.0 mm
14:48 38.9 °C 17.7 °C 1011.7 hPa West 14.8 km/h 14.8 km/h 29 % 0.0 mm
14:53 38.5 °C 16.8 °C 1011.7 hPa SSW 11.1 km/h 11.1 km/h 28 % 0.0 mm
14:58 38.0 °C 16.3 °C 1011.7 hPa SW 13.0 km/h 13.0 km/h 28 % 0.0 mm
15:03 38.2 °C 16.5 °C 1011.7 hPa SE 9.3 km/h 9.3 km/h 28 % 0.0 mm
15:08 37.8 °C 16.2 °C 1011.7 hPa West 18.5 km/h 18.5 km/h 28 % 0.0 mm
15:13 37.7 °C 16.1 °C 1011.7 hPa SW 16.7 km/h 16.7 km/h 28 % 0.0 mm
15:18 38.4 °C 16.7 °C 1010.7 hPa SSW 7.4 km/h 7.4 km/h 28 % 0.0 mm
15:23 38.5 °C 16.8 °C 1010.7 hPa SSE 9.3 km/h 9.3 km/h 28 % 0.0 mm
15:28 38.3 °C 16.6 °C 1010.7 hPa SSW 14.8 km/h 14.8 km/h 28 % 0.0 mm
15:33 38.3 °C 16.6 °C 1010.7 hPa SW 11.1 km/h 11.1 km/h 28 % 0.0 mm
15:38 37.8 °C 16.2 °C 1010.7 hPa SW 14.8 km/h 14.8 km/h 28 % 0.0 mm
15:43 38.0 °C 16.3 °C 1010.7 hPa SW 9.3 km/h 10.0 km/h 28 % 0.0 mm
15:48 37.6 °C 16.0 °C 1010.7 hPa West 16.7 km/h 16.7 km/h 28 % 0.0 mm
15:53 37.8 °C 16.2 °C 1010.7 hPa SW 9.3 km/h 9.3 km/h 28 % 0.0 mm
15:58 37.6 °C 16.0 °C 1010.7 hPa SW 16.7 km/h 16.7 km/h 28 % 0.0 mm
16:03 38.0 °C 16.3 °C 1010.7 hPa SW 13.0 km/h 13.0 km/h 28 % 0.0 mm
16:08 38.1 °C 16.4 °C 1010.7 hPa SW 13.0 km/h 13.0 km/h 28 % 0.0 mm
16:13 38.2 °C 16.5 °C 1010.7 hPa WSW 13.0 km/h 13.0 km/h 28 % 0.0 mm
16:18 37.9 °C 16.2 °C 1010.0 hPa SW 16.7 km/h 16.7 km/h 28 % 0.0 mm
16:23 38.1 °C 16.4 °C 1010.0 hPa West 11.1 km/h 11.1 km/h 28 % 0.0 mm
16:28 37.6 °C 16.0 °C 1010.0 hPa SW 14.8 km/h 14.8 km/h 28 % 0.0 mm
16:33 38.0 °C 16.3 °C 1010.0 hPa SSE 9.3 km/h 9.3 km/h 28 % 0.0 mm
16:38 38.3 °C 16.6 °C 1010.0 hPa South 9.3 km/h 9.3 km/h 28 % 0.0 mm
16:43 38.3 °C 16.6 °C 1010.0 hPa SSW 10.0 km/h 10.0 km/h 28 % 0.0 mm
16:48 38.1 °C 16.4 °C 1010.7 hPa SSW 9.7 km/h 9.7 km/h 28 % 0.0 mm
16:53 38.0 °C 16.3 °C 1010.7 hPa WSW 7.4 km/h 7.4 km/h 28 % 0.0 mm
16:58 38.0 °C 16.3 °C 1010.7 hPa WSW 11.1 km/h 11.1 km/h 28 % 0.0 mm
17:00 38.1 °C 16.4 °C 1010.7 hPa SW 13.0 km/h 13.0 km/h 28 % 0.0 mm
17:05 38.1 °C 16.4 °C 1010.0 hPa West 9.3 km/h 9.3 km/h 28 % 0.0 mm
17:10 37.5 °C 15.9 °C 1010.0 hPa SW 9.3 km/h 9.3 km/h 28 % 0.0 mm
17:15 37.6 °C 16.0 °C 1010.0 hPa South 7.4 km/h 7.4 km/h 28 % 0.0 mm
17:20 37.7 °C 16.1 °C 1010.7 hPa ESE 6.1 km/h 6.1 km/h 28 % 0.0 mm
17:25 36.8 °C 15.3 °C 1010.7 hPa WSW 5.6 km/h 5.6 km/h 28 % 0.0 mm
17:30 37.2 °C 15.7 °C 1010.7 hPa SSW 13.0 km/h 13.0 km/h 28 % 0.0 mm
17:35 37.2 °C 15.7 °C 1010.7 hPa North 6.1 km/h 6.1 km/h 28 % 0.0 mm
17:40 36.0 °C 15.2 °C 1010.7 hPa North 5.6 km/h 5.6 km/h 29 % 0.0 mm
17:45 36.0 °C 15.2 °C 1010.7 hPa SSE 9.3 km/h 9.3 km/h 29 % 0.0 mm
17:50 35.6 °C 14.8 °C 1010.0 hPa West 7.9 km/h 7.9 km/h 29 % 0.0 mm
17:55 35.9 °C 15.1 °C 1010.0 hPa NE 3.7 km/h 3.7 km/h 29 % 0.0 mm
18:00 35.8 °C 15.0 °C 1010.0 hPa West 3.7 km/h 3.7 km/h 29 % 0.0 mm
18:05 36.1 °C 15.3 °C 1010.7 hPa ENE 5.0 km/h 5.0 km/h 29 % 0.0 mm
18:10 36.2 °C 15.3 °C 1010.7 hPa ENE 5.6 km/h 5.6 km/h 29 % 0.0 mm
18:15 36.5 °C 15.6 °C 1010.7 hPa SW 7.4 km/h 7.4 km/h 29 % 0.0 mm
18:20 36.5 °C 15.6 °C 1010.7 hPa SSW 3.7 km/h 3.7 km/h 29 % 0.0 mm
18:25 35.4 °C 14.7 °C 1010.7 hPa South 3.9 km/h 3.9 km/h 29 % 0.0 mm
18:30 35.8 °C 15.0 °C 1010.7 hPa SW 9.3 km/h 9.3 km/h 29 % 0.0 mm
18:35 35.6 °C 14.8 °C 1010.7 hPa North 13.0 km/h 13.0 km/h 29 % 0.0 mm
18:40 34.7 °C 15.1 °C 1010.7 hPa ENE 9.3 km/h 9.3 km/h 31 % 0.0 mm
18:41 34.7 °C 15.1 °C 1010.7 hPa East 5.6 km/h 5.6 km/h 31 % 0.0 mm
18:46 33.9 °C 15.4 °C 1010.7 hPa NE 5.6 km/h 5.6 km/h 33 % 0.0 mm
18:51 33.7 °C 15.2 °C 1010.7 hPa SSE 4.7 km/h 4.7 km/h 33 % 0.0 mm
18:56 33.6 °C 15.1 °C 1010.7 hPa ESE 5.6 km/h 5.6 km/h 33 % 0.0 mm
19:01 33.2 °C 15.2 °C 1011.7 hPa East 11.4 km/h 11.4 km/h 34 % 0.0 mm
19:06 32.9 °C 15.8 °C 1011.7 hPa ESE 9.3 km/h 9.3 km/h 36 % 0.0 mm
19:11 32.7 °C 15.7 °C 1011.7 hPa SE 11.1 km/h 11.1 km/h 36 % 0.0 mm
19:16 32.5 °C 15.9 °C 1011.7 hPa ENE 3.7 km/h 3.7 km/h 37 % 0.0 mm
19:21 32.5 °C 15.9 °C 1011.7 hPa East 3.7 km/h 3.7 km/h 37 % 0.0 mm
19:25 26.2 °C 18.6 °C 1013.8 hPa Calm   1.6 km/h 63 % 0.0 mm
19:26 32.5 °C 15.9 °C 1011.7 hPa WSW 7.4 km/h 7.4 km/h 37 % 0.0 mm
19:31 32.8 °C 16.2 °C 1011.7 hPa South 5.3 km/h 5.3 km/h 37 % 0.0 mm
19:35 26.1 °C 18.5 °C 1013.8 hPa Calm     63 % 0.0 mm
19:36 32.9 °C 16.3 °C 1011.7 hPa SW 5.6 km/h 5.6 km/h 37 % 0.0 mm
19:41 32.9 °C 16.3 °C 1011.7 hPa SW 3.7 km/h 3.7 km/h 37 % 0.0 mm
19:45 26.0 °C 18.7 °C 1013.8 hPa West 1.6 km/h 3.2 km/h 64 % 0.0 mm
19:46 33.1 °C 16.1 °C 1011.7 hPa WSW 7.4 km/h 7.4 km/h 36 % 0.0 mm
19:51 32.9 °C 16.3 °C 1011.7 hPa NE 7.4 km/h 7.4 km/h 37 % 0.0 mm
19:55 25.8 °C 18.2 °C 1013.8 hPa Calm   1.6 km/h 63 % 0.0 mm
19:56 32.2 °C 16.1 °C 1011.7 hPa South 5.6 km/h 5.6 km/h 38 % 0.0 mm
20:01 31.5 °C 15.9 °C 1011.7 hPa ENE 5.6 km/h 5.6 km/h 39 % 0.0 mm
20:05 25.6 °C 18.1 °C 1013.8 hPa Calm   3.2 km/h 63 % 0.0 mm
20:06 31.1 °C 15.9 °C 1011.7 hPa NE 4.2 km/h 4.2 km/h 40 % 0.0 mm
20:11 30.8 °C 16.4 °C 1011.7 hPa ENE 7.4 km/h 7.4 km/h 42 % 0.0 mm
20:15 25.4 °C 17.8 °C 1013.8 hPa SW 1.6 km/h 3.2 km/h 63 % 0.0 mm
20:16 30.4 °C 16.4 °C 1011.7 hPa ENE 9.3 km/h 9.3 km/h 43 % 0.0 mm
20:21 30.1 °C 16.5 °C 1011.7 hPa NE 11.1 km/h 11.1 km/h 44 % 0.0 mm
20:25 25.3 °C 18.0 °C 1013.8 hPa Calm   1.6 km/h 64 % 0.0 mm
20:26 30.0 °C 16.8 °C 1011.7 hPa ESE 9.3 km/h 9.3 km/h 45 % 0.0 mm
20:31 29.8 °C 16.9 °C 1010.7 hPa ESE 7.4 km/h 7.4 km/h 46 % 0.0 mm
20:35 25.2 °C 18.2 °C 1014.8 hPa WSW 1.6 km/h 3.2 km/h 65 % 0.0 mm
20:36 29.7 °C 16.8 °C 1010.7 hPa East 9.3 km/h 9.3 km/h 46 % 0.0 mm
20:41 29.6 °C 17.1 °C 1010.7 hPa East 9.3 km/h 9.3 km/h 47 % 0.0 mm
20:45 25.1 °C 17.8 °C 1014.8 hPa WSW 3.2 km/h 3.2 km/h 64 % 0.0 mm
20:46 29.4 °C 17.2 °C 1011.7 hPa NNE 9.3 km/h 9.3 km/h 48 % 0.0 mm
20:51 29.2 °C 17.1 °C 1011.7 hPa ENE 11.1 km/h 11.1 km/h 48 % 0.0 mm
20:55 24.9 °C 18.1 °C 1013.8 hPa SW 1.6 km/h 3.2 km/h 66 % 0.0 mm
20:56 29.1 °C 17.3 °C 1011.7 hPa ESE 9.3 km/h 9.3 km/h 49 % 0.0 mm
21:01 28.9 °C 17.7 °C 1011.7 hPa ENE 7.4 km/h 7.4 km/h 51 % 0.0 mm
21:05 24.8 °C 18.0 °C 1013.8 hPa SW 1.6 km/h 3.2 km/h 66 % 0.0 mm
21:06 28.8 °C 17.7 °C 1011.7 hPa ENE 9.3 km/h 9.3 km/h 51 % 0.0 mm
21:11 28.6 °C 17.8 °C 1011.7 hPa NE 9.3 km/h 9.3 km/h 52 % 0.0 mm
21:15 24.8 °C 18.3 °C 1013.8 hPa WSW 1.6 km/h 1.6 km/h 67 % 0.0 mm
21:16 28.6 °C 18.1 °C 1011.7 hPa East 9.3 km/h 9.3 km/h 53 % 0.0 mm
21:21 28.4 °C 17.9 °C 1011.7 hPa ESE 7.4 km/h 7.4 km/h 53 % 0.0 mm
21:25 24.8 °C 18.3 °C 1013.8 hPa SW 1.6 km/h 3.2 km/h 67 % 0.0 mm
21:26 28.3 °C 18.4 °C 1011.7 hPa ENE 7.6 km/h 7.6 km/h 55 % 0.0 mm
21:31 28.1 °C 18.2 °C 1011.7 hPa East 9.3 km/h 9.3 km/h 55 % 0.0 mm
21:35 24.7 °C 18.4 °C 1013.8 hPa WSW 1.6 km/h 3.2 km/h 68 % 0.0 mm
21:36 28.1 °C 18.5 °C 1011.7 hPa NE 7.4 km/h 7.4 km/h 56 % 0.0 mm
21:41 28.0 °C 18.4 °C 1011.7 hPa East 9.3 km/h 9.3 km/h 56 % 0.0 mm
21:45 24.5 °C 18.2 °C 1013.8 hPa Calm     68 % 0.0 mm
21:46 27.9 °C 18.6 °C 1012.8 hPa ESE 9.3 km/h 9.3 km/h 57 % 0.0 mm
21:51 27.8 °C 18.5 °C 1012.8 hPa ENE 7.4 km/h 7.4 km/h 57 % 0.0 mm
21:55 24.5 °C 18.2 °C 1013.8 hPa Calm   1.6 km/h 68 % 0.0 mm
21:56 27.7 °C 18.7 °C 1012.8 hPa East 9.3 km/h 9.3 km/h 58 % 0.0 mm
22:01 27.7 °C 18.7 °C 1013.8 hPa ESE 9.0 km/h 9.0 km/h 58 % 0.0 mm
22:05 24.4 °C 18.3 °C 1012.8 hPa Calm     69 % 0.0 mm
22:06 27.6 °C 18.9 °C 1013.8 hPa East 7.4 km/h 7.4 km/h 59 % 0.0 mm
22:11 27.5 °C 18.5 °C 1013.8 hPa East 5.6 km/h 5.6 km/h 58 % 0.0 mm
22:15 24.3 °C 18.0 °C 1012.8 hPa Calm   3.2 km/h 68 % 0.0 mm
22:16 27.5 °C 19.1 °C 1013.8 hPa ESE 9.3 km/h 9.3 km/h 60 % 0.0 mm
22:21 27.4 °C 18.9 °C 1013.8 hPa East 5.8 km/h 5.8 km/h 60 % 0.0 mm
22:25 24.3 °C 18.2 °C 1013.8 hPa Calm   1.6 km/h 69 % 0.0 mm
22:26 27.4 °C 18.9 °C 1013.8 hPa ENE 6.4 km/h 6.4 km/h 60 % 0.0 mm
22:31 27.3 °C 18.8 °C 1013.8 hPa ENE 6.1 km/h 6.1 km/h 60 % 0.0 mm
22:35 24.3 °C 18.2 °C 1013.8 hPa Calm     69 % 0.0 mm
22:36 27.3 °C 18.8 °C 1013.8 hPa East 5.8 km/h 5.8 km/h 60 % 0.0 mm
22:41 27.2 °C 18.8 °C 1013.8 hPa ENE 5.6 km/h 5.6 km/h 60 % 0.0 mm
22:45 24.2 °C 18.2 °C 1013.8 hPa Calm     69 % 0.0 mm
22:46 27.2 °C 19.0 °C 1013.8 hPa ESE 3.7 km/h 3.7 km/h 61 % 0.0 mm
22:50 24.3 °C 18.5 °C 1013.8 hPa Calm     70 % 0.0 mm
22:51 27.1 °C 18.9 °C 1013.8 hPa East 3.9 km/h 3.9 km/h 61 % 0.0 mm
22:56 27.1 °C 18.9 °C 1013.8 hPa East 5.6 km/h 5.6 km/h 61 % 0.0 mm
23:00 24.4 °C 18.6 °C 1013.8 hPa Calm     70 % 0.0 mm
23:01 27.1 °C 18.9 °C 1013.8 hPa East 3.7 km/h 3.7 km/h 61 % 0.0 mm
23:06 27.0 °C 18.8 °C 1013.8 hPa ESE 1.9 km/h   61 % 0.0 mm
23:10 24.1 °C 18.1 °C 1013.8 hPa Calm   1.6 km/h 69 % 0.0 mm
23:11 27.0 °C 18.6 °C 1013.8 hPa WSW 5.3 km/h 5.3 km/h 60 % 0.0 mm
23:16 26.9 °C 18.7 °C 1013.8 hPa WSW 3.7 km/h 3.7 km/h 61 % 0.0 mm
23:20 23.7 °C 18.1 °C 1013.8 hPa SW 1.6 km/h 3.2 km/h 71 % 0.0 mm
23:21 26.8 °C 18.9 °C 1013.8 hPa SW 1.9 km/h   62 % 0.0 mm
23:22 26.8 °C 18.9 °C 1013.8 hPa SW 2.3 km/h 2.3 km/h 62 % 0.0 mm
23:27 26.7 °C 18.8 °C 1013.8 hPa WSW 1.9 km/h 1.9 km/h 62 % 0.0 mm
23:30 23.7 °C 18.1 °C 1013.8 hPa Calm   1.6 km/h 71 % 0.0 mm
23:32 26.7 °C 18.8 °C 1013.8 hPa SW 1.9 km/h 1.9 km/h 62 % 0.0 mm
23:37 26.6 °C 18.7 °C 1013.8 hPa SW 1.9 km/h 2.6 km/h 62 % 0.0 mm
23:40 23.8 °C 18.2 °C 1013.8 hPa WSW 1.6 km/h 3.2 km/h 71 % 0.0 mm
23:42 26.5 °C 18.6 °C 1013.8 hPa WSW 1.9 km/h   62 % 0.0 mm
23:47 26.5 °C 18.9 °C 1013.8 hPa SW 3.5 km/h 3.5 km/h 63 % 0.0 mm
23:50 23.8 °C 18.2 °C 1013.8 hPa Calm   3.2 km/h 71 % 0.0 mm
23:52 26.4 °C 18.8 °C 1013.8 hPa Calm     63 % 0.0 mm
23:57 26.4 °C 18.8 °C 1013.8 hPa SW 3.7 km/h 3.7 km/h 63 % 0.0 mm
Meteo Sesrovires
Elogis d' Weather Underground - 3.75 mb

Guio original per  Jim McMurry - jmcmurry@mwt.net Adaptat per a la plantilla per  Wim van der Kuil - Leuven-Template.eu

Trobareu la nostra informacio del temps tambe a:

Weather Underground

AWEKAS